sensor_id;sensor_type;location;lat;lon;timestamp;temperature;humidity
16315;DHT22;8266;52.150;4.768;2023-02-15T00:01:37;6.90;99.90
16315;DHT22;8266;52.150;4.768;2023-02-15T00:04:05;6.90;99.90
16315;DHT22;8266;52.150;4.768;2023-02-15T00:06:33;6.90;99.90
16315;DHT22;8266;52.150;4.768;2023-02-15T00:09:00;6.80;99.90
16315;DHT22;8266;52.150;4.768;2023-02-15T00:11:27;6.90;99.90
16315;DHT22;8266;52.150;4.768;2023-02-15T00:14:11;6.80;99.90
16315;DHT22;8266;52.150;4.768;2023-02-15T00:16:41;6.80;99.90
16315;DHT22;8266;52.150;4.768;2023-02-15T00:19:10;6.80;99.90
16315;DHT22;8266;52.150;4.768;2023-02-15T00:21:38;6.70;99.90
16315;DHT22;8266;52.150;4.768;2023-02-15T00:24:08;6.70;99.90
16315;DHT22;8266;52.150;4.768;2023-02-15T00:26:37;6.70;99.90
16315;DHT22;8266;52.150;4.768;2023-02-15T00:29:05;6.70;99.90
16315;DHT22;8266;52.150;4.768;2023-02-15T00:31:33;6.70;99.90
16315;DHT22;8266;52.150;4.768;2023-02-15T00:34:03;6.70;99.90
16315;DHT22;8266;52.150;4.768;2023-02-15T00:36:30;6.70;99.90
16315;DHT22;8266;52.150;4.768;2023-02-15T00:38:58;6.60;99.90
16315;DHT22;8266;52.150;4.768;2023-02-15T00:41:25;6.60;99.90
16315;DHT22;8266;52.150;4.768;2023-02-15T00:43:52;6.60;99.90
16315;DHT22;8266;52.150;4.768;2023-02-15T00:46:20;6.60;99.90
16315;DHT22;8266;52.150;4.768;2023-02-15T00:48:47;6.60;99.90
16315;DHT22;8266;52.150;4.768;2023-02-15T00:51:16;6.60;99.90
16315;DHT22;8266;52.150;4.768;2023-02-15T00:53:46;6.60;99.90
16315;DHT22;8266;52.150;4.768;2023-02-15T00:56:13;6.60;99.90
16315;DHT22;8266;52.150;4.768;2023-02-15T00:58:41;6.60;99.90
16315;DHT22;8266;52.150;4.768;2023-02-15T01:01:14;6.60;99.90
16315;DHT22;8266;52.150;4.768;2023-02-15T01:03:42;6.60;99.90
16315;DHT22;8266;52.150;4.768;2023-02-15T01:06:10;6.60;99.90
16315;DHT22;8266;52.150;4.768;2023-02-15T01:08:40;6.60;99.90
16315;DHT22;8266;52.150;4.768;2023-02-15T01:11:10;6.60;99.90
16315;DHT22;8266;52.150;4.768;2023-02-15T01:13:38;6.60;99.90
16315;DHT22;8266;52.150;4.768;2023-02-15T01:16:06;6.50;99.90
16315;DHT22;8266;52.150;4.768;2023-02-15T01:18:34;6.50;99.90
16315;DHT22;8266;52.150;4.768;2023-02-15T01:21:09;6.50;99.90
16315;DHT22;8266;52.150;4.768;2023-02-15T01:23:36;6.50;99.90
16315;DHT22;8266;52.150;4.768;2023-02-15T01:26:05;6.50;99.90
16315;DHT22;8266;52.150;4.768;2023-02-15T01:28:32;6.50;99.90
16315;DHT22;8266;52.150;4.768;2023-02-15T01:30:59;6.50;99.90
16315;DHT22;8266;52.150;4.768;2023-02-15T01:33:27;6.40;99.90
16315;DHT22;8266;52.150;4.768;2023-02-15T01:35:56;6.40;99.90
16315;DHT22;8266;52.150;4.768;2023-02-15T01:38:24;6.40;99.90
16315;DHT22;8266;52.150;4.768;2023-02-15T01:40:51;6.40;99.90
16315;DHT22;8266;52.150;4.768;2023-02-15T01:43:20;6.40;99.90
16315;DHT22;8266;52.150;4.768;2023-02-15T01:45:48;6.40;99.90
16315;DHT22;8266;52.150;4.768;2023-02-15T01:48:19;6.40;99.90
16315;DHT22;8266;52.150;4.768;2023-02-15T01:50:50;6.40;99.90
16315;DHT22;8266;52.150;4.768;2023-02-15T01:53:21;6.40;99.90
16315;DHT22;8266;52.150;4.768;2023-02-15T01:55:53;6.40;99.90
16315;DHT22;8266;52.150;4.768;2023-02-15T01:58:26;6.30;99.90
16315;DHT22;8266;52.150;4.768;2023-02-15T02:00:57;6.30;99.90
16315;DHT22;8266;52.150;4.768;2023-02-15T02:03:33;6.30;99.90
16315;DHT22;8266;52.150;4.768;2023-02-15T02:06:03;6.30;99.90
16315;DHT22;8266;52.150;4.768;2023-02-15T02:08:30;6.20;99.90
16315;DHT22;8266;52.150;4.768;2023-02-15T02:10:58;6.30;99.90
16315;DHT22;8266;52.150;4.768;2023-02-15T02:13:26;6.20;99.90
16315;DHT22;8266;52.150;4.768;2023-02-15T02:16:00;6.10;99.90
16315;DHT22;8266;52.150;4.768;2023-02-15T02:18:36;6.20;99.90
16315;DHT22;8266;52.150;4.768;2023-02-15T02:21:28;6.00;99.90
16315;DHT22;8266;52.150;4.768;2023-02-15T02:24:26;6.00;99.90
16315;DHT22;8266;52.150;4.768;2023-02-15T02:27:29;6.00;99.90
16315;DHT22;8266;52.150;4.768;2023-02-15T02:33:27;5.90;99.90
16315;DHT22;8266;52.150;4.768;2023-02-15T02:36:06;5.90;99.90
16315;DHT22;8266;52.150;4.768;2023-02-15T02:38:42;5.80;99.90
16315;DHT22;8266;52.150;4.768;2023-02-15T02:41:17;5.80;99.90
16315;DHT22;8266;52.150;4.768;2023-02-15T02:43:50;5.80;99.90
16315;DHT22;8266;52.150;4.768;2023-02-15T02:46:26;5.70;99.90
16315;DHT22;8266;52.150;4.768;2023-02-15T02:48:56;5.70;99.90
16315;DHT22;8266;52.150;4.768;2023-02-15T02:51:24;5.70;99.90
16315;DHT22;8266;52.150;4.768;2023-02-15T02:53:53;5.60;99.90
16315;DHT22;8266;52.150;4.768;2023-02-15T02:56:26;5.60;99.90
16315;DHT22;8266;52.150;4.768;2023-02-15T02:58:58;5.50;99.90
16315;DHT22;8266;52.150;4.768;2023-02-15T03:01:31;5.50;99.90
16315;DHT22;8266;52.150;4.768;2023-02-15T03:04:06;5.40;99.90
16315;DHT22;8266;52.150;4.768;2023-02-15T03:06:39;5.40;99.90
16315;DHT22;8266;52.150;4.768;2023-02-15T03:09:10;5.30;99.90
16315;DHT22;8266;52.150;4.768;2023-02-15T03:11:41;5.40;99.90
16315;DHT22;8266;52.150;4.768;2023-02-15T03:14:10;5.20;99.90
16315;DHT22;8266;52.150;4.768;2023-02-15T03:16:39;5.20;99.90
16315;DHT22;8266;52.150;4.768;2023-02-15T03:19:10;5.10;99.90
16315;DHT22;8266;52.150;4.768;2023-02-15T03:21:41;5.10;99.90
16315;DHT22;8266;52.150;4.768;2023-02-15T03:24:19;5.10;99.90
16315;DHT22;8266;52.150;4.768;2023-02-15T03:26:49;5.00;99.90
16315;DHT22;8266;52.150;4.768;2023-02-15T03:29:18;5.00;99.90
16315;DHT22;8266;52.150;4.768;2023-02-15T03:32:02;5.00;99.90
16315;DHT22;8266;52.150;4.768;2023-02-15T03:34:31;4.90;99.90
16315;DHT22;8266;52.150;4.768;2023-02-15T03:37:04;4.90;99.90
16315;DHT22;8266;52.150;4.768;2023-02-15T03:39:40;4.90;99.90
16315;DHT22;8266;52.150;4.768;2023-02-15T03:42:11;4.90;99.90
16315;DHT22;8266;52.150;4.768;2023-02-15T03:44:45;4.90;99.90
16315;DHT22;8266;52.150;4.768;2023-02-15T03:47:16;4.80;99.90
16315;DHT22;8266;52.150;4.768;2023-02-15T03:49:52;4.90;99.90
16315;DHT22;8266;52.150;4.768;2023-02-15T03:52:21;4.80;99.90
16315;DHT22;8266;52.150;4.768;2023-02-15T03:54:56;4.90;99.90
16315;DHT22;8266;52.150;4.768;2023-02-15T03:57:26;4.80;99.90
16315;DHT22;8266;52.150;4.768;2023-02-15T04:00:14;4.80;99.90
16315;DHT22;8266;52.150;4.768;2023-02-15T04:03:21;4.80;99.90
16315;DHT22;8266;52.150;4.768;2023-02-15T04:05:50;4.80;99.90
16315;DHT22;8266;52.150;4.768;2023-02-15T04:08:18;4.80;99.90
16315;DHT22;8266;52.150;4.768;2023-02-15T04:10:45;4.80;99.90
16315;DHT22;8266;52.150;4.768;2023-02-15T04:13:30;4.80;99.90
16315;DHT22;8266;52.150;4.768;2023-02-15T04:15:57;4.80;99.90
16315;DHT22;8266;52.150;4.768;2023-02-15T04:18:29;4.80;99.90
16315;DHT22;8266;52.150;4.768;2023-02-15T04:21:15;4.80;99.90
16315;DHT22;8266;52.150;4.768;2023-02-15T04:23:59;4.80;99.90
16315;DHT22;8266;52.150;4.768;2023-02-15T04:26:44;4.80;99.90
16315;DHT22;8266;52.150;4.768;2023-02-15T04:29:14;4.90;99.90
16315;DHT22;8266;52.150;4.768;2023-02-15T04:31:42;4.80;99.90
16315;DHT22;8266;52.150;4.768;2023-02-15T04:34:28;4.80;99.90
16315;DHT22;8266;52.150;4.768;2023-02-15T04:36:56;4.90;99.90
16315;DHT22;8266;52.150;4.768;2023-02-15T04:39:23;4.90;99.90
16315;DHT22;8266;52.150;4.768;2023-02-15T04:41:50;5.00;99.90
16315;DHT22;8266;52.150;4.768;2023-02-15T04:44:17;4.90;99.90
16315;DHT22;8266;52.150;4.768;2023-02-15T04:46:44;5.00;99.90
16315;DHT22;8266;52.150;4.768;2023-02-15T04:49:12;4.90;99.90
16315;DHT22;8266;52.150;4.768;2023-02-15T04:51:39;4.90;99.90
16315;DHT22;8266;52.150;4.768;2023-02-15T04:54:08;5.00;99.90
16315;DHT22;8266;52.150;4.768;2023-02-15T04:56:35;5.00;99.90
16315;DHT22;8266;52.150;4.768;2023-02-15T04:59:03;5.10;99.90
16315;DHT22;8266;52.150;4.768;2023-02-15T05:01:30;5.10;99.90
16315;DHT22;8266;52.150;4.768;2023-02-15T05:03:58;5.10;99.90
16315;DHT22;8266;52.150;4.768;2023-02-15T05:06:25;5.10;99.90
16315;DHT22;8266;52.150;4.768;2023-02-15T05:08:52;5.10;99.90
16315;DHT22;8266;52.150;4.768;2023-02-15T05:11:21;5.10;99.90
16315;DHT22;8266;52.150;4.768;2023-02-15T05:13:49;5.10;99.90
16315;DHT22;8266;52.150;4.768;2023-02-15T05:16:17;5.20;99.90
16315;DHT22;8266;52.150;4.768;2023-02-15T05:18:45;5.20;99.90
16315;DHT22;8266;52.150;4.768;2023-02-15T05:21:14;5.20;99.90
16315;DHT22;8266;52.150;4.768;2023-02-15T05:23:44;5.20;99.90
16315;DHT22;8266;52.150;4.768;2023-02-15T05:26:12;5.20;99.90
16315;DHT22;8266;52.150;4.768;2023-02-15T05:28:58;5.20;99.90
16315;DHT22;8266;52.150;4.768;2023-02-15T05:31:25;5.20;99.90
16315;DHT22;8266;52.150;4.768;2023-02-15T05:33:52;5.20;99.90
16315;DHT22;8266;52.150;4.768;2023-02-15T05:36:19;5.20;99.90
16315;DHT22;8266;52.150;4.768;2023-02-15T05:38:46;5.30;99.90
16315;DHT22;8266;52.150;4.768;2023-02-15T05:41:19;5.20;99.90
16315;DHT22;8266;52.150;4.768;2023-02-15T05:43:46;5.20;99.90
16315;DHT22;8266;52.150;4.768;2023-02-15T05:49:19;5.20;99.90
16315;DHT22;8266;52.150;4.768;2023-02-15T05:51:46;5.10;99.90
16315;DHT22;8266;52.150;4.768;2023-02-15T05:54:13;5.10;99.90
16315;DHT22;8266;52.150;4.768;2023-02-15T05:56:42;5.10;99.90
16315;DHT22;8266;52.150;4.768;2023-02-15T05:59:17;5.10;99.90
16315;DHT22;8266;52.150;4.768;2023-02-15T06:01:44;5.10;99.90
16315;DHT22;8266;52.150;4.768;2023-02-15T06:04:12;5.10;99.90
16315;DHT22;8266;52.150;4.768;2023-02-15T06:06:41;5.00;99.90
16315;DHT22;8266;52.150;4.768;2023-02-15T06:09:09;5.00;99.90
16315;DHT22;8266;52.150;4.768;2023-02-15T06:11:36;5.00;99.90
16315;DHT22;8266;52.150;4.768;2023-02-15T06:14:03;5.00;99.90
16315;DHT22;8266;52.150;4.768;2023-02-15T06:16:52;5.00;99.90
16315;DHT22;8266;52.150;4.768;2023-02-15T06:19:19;5.00;99.90
16315;DHT22;8266;52.150;4.768;2023-02-15T06:21:48;5.00;99.90
16315;DHT22;8266;52.150;4.768;2023-02-15T06:24:14;4.90;99.90
16315;DHT22;8266;52.150;4.768;2023-02-15T06:26:57;4.90;99.90
16315;DHT22;8266;52.150;4.768;2023-02-15T06:29:55;4.90;99.90
16315;DHT22;8266;52.150;4.768;2023-02-15T06:32:22;4.90;99.90
16315;DHT22;8266;52.150;4.768;2023-02-15T06:34:49;4.90;99.90
16315;DHT22;8266;52.150;4.768;2023-02-15T06:37:18;4.90;99.90
16315;DHT22;8266;52.150;4.768;2023-02-15T06:39:45;4.80;99.90
16315;DHT22;8266;52.150;4.768;2023-02-15T06:42:12;4.80;99.90
16315;DHT22;8266;52.150;4.768;2023-02-15T06:44:39;4.80;99.90
16315;DHT22;8266;52.150;4.768;2023-02-15T06:47:06;4.80;99.90
16315;DHT22;8266;52.150;4.768;2023-02-15T06:49:34;4.80;99.90
16315;DHT22;8266;52.150;4.768;2023-02-15T06:52:01;4.80;99.90
16315;DHT22;8266;52.150;4.768;2023-02-15T06:54:30;4.80;99.90
16315;DHT22;8266;52.150;4.768;2023-02-15T06:56:57;4.70;99.90
16315;DHT22;8266;52.150;4.768;2023-02-15T06:59:24;4.80;99.90
16315;DHT22;8266;52.150;4.768;2023-02-15T07:01:51;4.80;99.90
16315;DHT22;8266;52.150;4.768;2023-02-15T07:04:18;4.70;99.90
16315;DHT22;8266;52.150;4.768;2023-02-15T07:06:45;4.90;99.90
16315;DHT22;8266;52.150;4.768;2023-02-15T07:09:12;4.80;99.90
16315;DHT22;8266;52.150;4.768;2023-02-15T07:11:41;4.80;99.90
16315;DHT22;8266;52.150;4.768;2023-02-15T07:14:27;4.80;99.90
16315;DHT22;8266;52.150;4.768;2023-02-15T07:16:54;4.80;99.90
16315;DHT22;8266;52.150;4.768;2023-02-15T07:19:21;4.80;99.90
16315;DHT22;8266;52.150;4.768;2023-02-15T07:21:49;4.80;99.90
16315;DHT22;8266;52.150;4.768;2023-02-15T07:24:17;4.80;99.90
16315;DHT22;8266;52.150;4.768;2023-02-15T07:26:46;4.80;99.90
16315;DHT22;8266;52.150;4.768;2023-02-15T07:29:13;4.80;99.90
16315;DHT22;8266;52.150;4.768;2023-02-15T07:31:41;4.90;99.90
16315;DHT22;8266;52.150;4.768;2023-02-15T07:34:11;4.90;99.90
16315;DHT22;8266;52.150;4.768;2023-02-15T07:36:38;4.90;99.90
16315;DHT22;8266;52.150;4.768;2023-02-15T07:39:07;4.80;99.90
16315;DHT22;8266;52.150;4.768;2023-02-15T07:41:34;4.90;99.90
16315;DHT22;8266;52.150;4.768;2023-02-15T07:44:03;4.90;99.90
16315;DHT22;8266;52.150;4.768;2023-02-15T07:46:44;4.90;99.90
16315;DHT22;8266;52.150;4.768;2023-02-15T07:49:10;4.90;99.90
16315;DHT22;8266;52.150;4.768;2023-02-15T07:51:37;4.90;99.90
16315;DHT22;8266;52.150;4.768;2023-02-15T07:54:06;5.00;99.90
16315;DHT22;8266;52.150;4.768;2023-02-15T07:56:33;5.00;99.90
16315;DHT22;8266;52.150;4.768;2023-02-15T07:59:00;5.00;99.90
16315;DHT22;8266;52.150;4.768;2023-02-15T08:01:32;5.00;99.90
16315;DHT22;8266;52.150;4.768;2023-02-15T08:04:01;5.00;99.90
16315;DHT22;8266;52.150;4.768;2023-02-15T08:06:30;5.10;99.90
16315;DHT22;8266;52.150;4.768;2023-02-15T08:08:58;5.10;99.90
16315;DHT22;8266;52.150;4.768;2023-02-15T08:11:28;5.20;99.90
16315;DHT22;8266;52.150;4.768;2023-02-15T08:14:00;5.30;99.90
16315;DHT22;8266;52.150;4.768;2023-02-15T08:16:32;5.30;99.90
16315;DHT22;8266;52.150;4.768;2023-02-15T08:19:03;5.40;99.90
16315;DHT22;8266;52.150;4.768;2023-02-15T08:21:31;5.50;99.90
16315;DHT22;8266;52.150;4.768;2023-02-15T08:23:58;5.50;99.90
16315;DHT22;8266;52.150;4.768;2023-02-15T08:26:26;5.60;99.90
16315;DHT22;8266;52.150;4.768;2023-02-15T08:28:54;5.60;99.90
16315;DHT22;8266;52.150;4.768;2023-02-15T08:31:22;5.70;99.90
16315;DHT22;8266;52.150;4.768;2023-02-15T08:33:52;5.70;99.90
16315;DHT22;8266;52.150;4.768;2023-02-15T08:36:21;5.70;99.90
16315;DHT22;8266;52.150;4.768;2023-02-15T08:38:49;5.80;99.90
16315;DHT22;8266;52.150;4.768;2023-02-15T08:41:17;5.90;99.90
16315;DHT22;8266;52.150;4.768;2023-02-15T08:43:47;6.00;99.90
16315;DHT22;8266;52.150;4.768;2023-02-15T08:46:15;6.20;99.90
16315;DHT22;8266;52.150;4.768;2023-02-15T08:48:43;6.40;99.90
16315;DHT22;8266;52.150;4.768;2023-02-15T08:51:13;6.50;99.90
16315;DHT22;8266;52.150;4.768;2023-02-15T08:53:42;6.70;99.90
16315;DHT22;8266;52.150;4.768;2023-02-15T08:56:10;6.90;99.90
16315;DHT22;8266;52.150;4.768;2023-02-15T08:58:37;7.00;99.90
16315;DHT22;8266;52.150;4.768;2023-02-15T09:01:12;7.20;99.90
16315;DHT22;8266;52.150;4.768;2023-02-15T09:03:40;7.50;99.90
16315;DHT22;8266;52.150;4.768;2023-02-15T09:06:07;7.60;99.90
16315;DHT22;8266;52.150;4.768;2023-02-15T09:08:35;7.80;99.90
16315;DHT22;8266;52.150;4.768;2023-02-15T09:11:10;8.00;99.90
16315;DHT22;8266;52.150;4.768;2023-02-15T09:13:38;8.20;99.90
16315;DHT22;8266;52.150;4.768;2023-02-15T09:16:07;8.30;99.90
16315;DHT22;8266;52.150;4.768;2023-02-15T09:18:38;8.40;99.90
16315;DHT22;8266;52.150;4.768;2023-02-15T09:21:06;8.60;99.90
16315;DHT22;8266;52.150;4.768;2023-02-15T09:23:36;8.70;99.90
16315;DHT22;8266;52.150;4.768;2023-02-15T09:26:08;8.90;99.90
16315;DHT22;8266;52.150;4.768;2023-02-15T09:28:36;9.00;99.90
16315;DHT22;8266;52.150;4.768;2023-02-15T09:31:13;9.20;99.90
16315;DHT22;8266;52.150;4.768;2023-02-15T09:33:42;9.30;99.90
16315;DHT22;8266;52.150;4.768;2023-02-15T09:36:21;9.40;99.90
16315;DHT22;8266;52.150;4.768;2023-02-15T09:38:55;9.60;99.90
16315;DHT22;8266;52.150;4.768;2023-02-15T09:44:22;10.00;99.90
16315;DHT22;8266;52.150;4.768;2023-02-15T09:47:16;10.20;99.90
16315;DHT22;8266;52.150;4.768;2023-02-15T09:49:51;10.40;99.90
16315;DHT22;8266;52.150;4.768;2023-02-15T09:52:33;10.70;99.90
16315;DHT22;8266;52.150;4.768;2023-02-15T09:55:15;10.80;99.90
16315;DHT22;8266;52.150;4.768;2023-02-15T09:57:52;11.00;99.90
16315;DHT22;8266;52.150;4.768;2023-02-15T10:00:27;11.20;99.90
16315;DHT22;8266;52.150;4.768;2023-02-15T10:03:10;11.40;99.90
16315;DHT22;8266;52.150;4.768;2023-02-15T10:05:47;11.60;99.90
16315;DHT22;8266;52.150;4.768;2023-02-15T10:08:29;11.70;99.90
16315;DHT22;8266;52.150;4.768;2023-02-15T10:11:06;11.90;99.90
16315;DHT22;8266;52.150;4.768;2023-02-15T10:13:57;12.10;99.90
16315;DHT22;8266;52.150;4.768;2023-02-15T10:16:36;12.20;99.90
16315;DHT22;8266;52.150;4.768;2023-02-15T10:19:09;12.30;99.90
16315;DHT22;8266;52.150;4.768;2023-02-15T10:21:46;12.30;99.90
16315;DHT22;8266;52.150;4.768;2023-02-15T10:24:36;12.40;99.90
16315;DHT22;8266;52.150;4.768;2023-02-15T10:27:11;12.40;99.90
16315;DHT22;8266;52.150;4.768;2023-02-15T10:29:41;12.30;99.90
16315;DHT22;8266;52.150;4.768;2023-02-15T10:32:20;12.30;99.90
16315;DHT22;8266;52.150;4.768;2023-02-15T10:34:51;12.30;99.90
16315;DHT22;8266;52.150;4.768;2023-02-15T10:37:49;12.20;99.90
16315;DHT22;8266;52.150;4.768;2023-02-15T10:40:27;12.10;99.90
16315;DHT22;8266;52.150;4.768;2023-02-15T10:43:08;12.10;99.90
16315;DHT22;8266;52.150;4.768;2023-02-15T10:45:46;12.00;99.90
16315;DHT22;8266;52.150;4.768;2023-02-15T10:48:37;11.90;99.90
16315;DHT22;8266;52.150;4.768;2023-02-15T10:51:08;11.90;99.90
16315;DHT22;8266;52.150;4.768;2023-02-15T10:53:57;11.90;99.90
16315;DHT22;8266;52.150;4.768;2023-02-15T10:56:42;11.80;99.90
16315;DHT22;8266;52.150;4.768;2023-02-15T10:59:30;11.80;99.90
16315;DHT22;8266;52.150;4.768;2023-02-15T11:02:10;11.70;99.90
16315;DHT22;8266;52.150;4.768;2023-02-15T11:04:48;11.60;99.90
16315;DHT22;8266;52.150;4.768;2023-02-15T11:07:21;11.60;99.90
16315;DHT22;8266;52.150;4.768;2023-02-15T11:09:51;11.50;99.90
16315;DHT22;8266;52.150;4.768;2023-02-15T11:12:24;11.50;99.90
16315;DHT22;8266;52.150;4.768;2023-02-15T11:14:57;11.50;99.90
16315;DHT22;8266;52.150;4.768;2023-02-15T11:17:28;11.50;99.90
16315;DHT22;8266;52.150;4.768;2023-02-15T11:20:05;11.50;99.90
16315;DHT22;8266;52.150;4.768;2023-02-15T11:22:34;11.50;99.90
16315;DHT22;8266;52.150;4.768;2023-02-15T11:25:14;11.50;99.90
16315;DHT22;8266;52.150;4.768;2023-02-15T11:27:44;11.60;99.90
16315;DHT22;8266;52.150;4.768;2023-02-15T11:30:17;11.60;99.90
16315;DHT22;8266;52.150;4.768;2023-02-15T11:32:47;11.60;99.90
16315;DHT22;8266;52.150;4.768;2023-02-15T11:35:23;11.70;99.90
16315;DHT22;8266;52.150;4.768;2023-02-15T11:37:57;11.80;99.90
16315;DHT22;8266;52.150;4.768;2023-02-15T11:40:31;11.80;99.90
16315;DHT22;8266;52.150;4.768;2023-02-15T11:43:03;11.80;99.90
16315;DHT22;8266;52.150;4.768;2023-02-15T11:45:34;11.90;99.90
16315;DHT22;8266;52.150;4.768;2023-02-15T11:48:08;12.00;99.90
16315;DHT22;8266;52.150;4.768;2023-02-15T11:50:36;12.10;99.90
16315;DHT22;8266;52.150;4.768;2023-02-15T11:53:05;12.20;99.90
16315;DHT22;8266;52.150;4.768;2023-02-15T11:55:32;12.20;99.90
16315;DHT22;8266;52.150;4.768;2023-02-15T11:58:04;12.30;99.90
16315;DHT22;8266;52.150;4.768;2023-02-15T12:00:36;12.30;99.90
16315;DHT22;8266;52.150;4.768;2023-02-15T12:03:12;12.40;99.90
16315;DHT22;8266;52.150;4.768;2023-02-15T12:05:42;12.50;99.90
16315;DHT22;8266;52.150;4.768;2023-02-15T12:08:15;12.60;99.90
16315;DHT22;8266;52.150;4.768;2023-02-15T12:10:56;12.60;99.90
16315;DHT22;8266;52.150;4.768;2023-02-15T12:13:30;12.70;99.90
16315;DHT22;8266;52.150;4.768;2023-02-15T12:16:05;12.70;99.90
16315;DHT22;8266;52.150;4.768;2023-02-15T12:18:45;12.80;99.90
16315;DHT22;8266;52.150;4.768;2023-02-15T12:21:15;12.90;99.90
16315;DHT22;8266;52.150;4.768;2023-02-15T12:23:48;13.00;99.90
16315;DHT22;8266;52.150;4.768;2023-02-15T12:26:24;13.10;99.90
16315;DHT22;8266;52.150;4.768;2023-02-15T12:28:51;13.20;99.90
16315;DHT22;8266;52.150;4.768;2023-02-15T12:31:27;13.30;99.90
16315;DHT22;8266;52.150;4.768;2023-02-15T12:33:57;13.40;99.90
16315;DHT22;8266;52.150;4.768;2023-02-15T12:36:30;13.50;99.90
16315;DHT22;8266;52.150;4.768;2023-02-15T12:39:18;13.50;99.90
16315;DHT22;8266;52.150;4.768;2023-02-15T12:41:56;13.60;99.90
16315;DHT22;8266;52.150;4.768;2023-02-15T12:44:26;13.80;99.90
16315;DHT22;8266;52.150;4.768;2023-02-15T12:47:02;13.90;99.90
16315;DHT22;8266;52.150;4.768;2023-02-15T12:49:30;13.90;99.90
16315;DHT22;8266;52.150;4.768;2023-02-15T12:51:59;14.10;99.90
16315;DHT22;8266;52.150;4.768;2023-02-15T12:54:36;14.10;99.90
16315;DHT22;8266;52.150;4.768;2023-02-15T12:57:24;14.10;99.90
16315;DHT22;8266;52.150;4.768;2023-02-15T12:59:54;14.20;99.90
16315;DHT22;8266;52.150;4.768;2023-02-15T13:02:27;14.20;99.90
16315;DHT22;8266;52.150;4.768;2023-02-15T13:04:56;14.20;99.90
16315;DHT22;8266;52.150;4.768;2023-02-15T13:07:28;14.20;99.90
16315;DHT22;8266;52.150;4.768;2023-02-15T13:09:56;14.10;99.90
16315;DHT22;8266;52.150;4.768;2023-02-15T13:12:27;14.10;99.90
16315;DHT22;8266;52.150;4.768;2023-02-15T13:14:57;14.10;99.90
16315;DHT22;8266;52.150;4.768;2023-02-15T13:17:28;14.10;99.90
16315;DHT22;8266;52.150;4.768;2023-02-15T13:20:00;14.10;99.90
16315;DHT22;8266;52.150;4.768;2023-02-15T13:22:34;14.10;99.90
16315;DHT22;8266;52.150;4.768;2023-02-15T13:25:11;14.20;99.90
16315;DHT22;8266;52.150;4.768;2023-02-15T13:27:41;14.20;99.90
16315;DHT22;8266;52.150;4.768;2023-02-15T13:30:18;14.20;99.90
16315;DHT22;8266;52.150;4.768;2023-02-15T13:32:52;14.20;99.90
16315;DHT22;8266;52.150;4.768;2023-02-15T13:35:22;14.20;99.90
16315;DHT22;8266;52.150;4.768;2023-02-15T13:38:01;14.20;99.90
16315;DHT22;8266;52.150;4.768;2023-02-15T13:40:33;14.20;99.90
16315;DHT22;8266;52.150;4.768;2023-02-15T13:43:06;14.20;99.90
16315;DHT22;8266;52.150;4.768;2023-02-15T13:45:41;14.20;99.90
16315;DHT22;8266;52.150;4.768;2023-02-15T13:48:20;14.30;99.90
16315;DHT22;8266;52.150;4.768;2023-02-15T13:51:02;14.30;99.90
16315;DHT22;8266;52.150;4.768;2023-02-15T13:53:48;14.30;99.90
16315;DHT22;8266;52.150;4.768;2023-02-15T13:56:32;14.30;99.90
16315;DHT22;8266;52.150;4.768;2023-02-15T13:59:27;14.40;99.90
16315;DHT22;8266;52.150;4.768;2023-02-15T14:01:58;14.40;99.90
16315;DHT22;8266;52.150;4.768;2023-02-15T14:04:54;14.40;99.90
16315;DHT22;8266;52.150;4.768;2023-02-15T14:07:31;14.50;99.90
16315;DHT22;8266;52.150;4.768;2023-02-15T14:10:15;14.50;99.90
16315;DHT22;8266;52.150;4.768;2023-02-15T14:12:58;14.60;99.90
16315;DHT22;8266;52.150;4.768;2023-02-15T14:15:36;14.60;99.90
16315;DHT22;8266;52.150;4.768;2023-02-15T14:18:13;14.70;99.90
16315;DHT22;8266;52.150;4.768;2023-02-15T14:20:56;14.70;99.90
16315;DHT22;8266;52.150;4.768;2023-02-15T14:23:35;14.80;99.90
16315;DHT22;8266;52.150;4.768;2023-02-15T14:26:09;14.80;99.90
16315;DHT22;8266;52.150;4.768;2023-02-15T14:28:43;14.90;99.90
16315;DHT22;8266;52.150;4.768;2023-02-15T14:31:13;14.90;99.90
16315;DHT22;8266;52.150;4.768;2023-02-15T14:33:47;14.90;99.90
16315;DHT22;8266;52.150;4.768;2023-02-15T14:36:18;15.00;99.90
16315;DHT22;8266;52.150;4.768;2023-02-15T14:39:02;15.10;99.90
16315;DHT22;8266;52.150;4.768;2023-02-15T14:41:55;15.10;99.90
16315;DHT22;8266;52.150;4.768;2023-02-15T14:44:30;15.20;99.90
16315;DHT22;8266;52.150;4.768;2023-02-15T14:47:04;15.20;99.90
16315;DHT22;8266;52.150;4.768;2023-02-15T14:49:35;15.20;99.90
16315;DHT22;8266;52.150;4.768;2023-02-15T14:52:05;15.20;99.90
16315;DHT22;8266;52.150;4.768;2023-02-15T14:54:56;15.20;99.90
16315;DHT22;8266;52.150;4.768;2023-02-15T14:57:26;15.20;99.90
16315;DHT22;8266;52.150;4.768;2023-02-15T14:59:55;15.10;99.90
16315;DHT22;8266;52.150;4.768;2023-02-15T15:02:26;15.10;99.90
16315;DHT22;8266;52.150;4.768;2023-02-15T15:05:01;15.00;99.90
16315;DHT22;8266;52.150;4.768;2023-02-15T15:07:40;15.00;99.90
16315;DHT22;8266;52.150;4.768;2023-02-15T15:10:37;14.90;99.90
16315;DHT22;8266;52.150;4.768;2023-02-15T15:13:37;14.90;99.90
16315;DHT22;8266;52.150;4.768;2023-02-15T15:16:30;14.80;99.90
16315;DHT22;8266;52.150;4.768;2023-02-15T15:18:58;14.80;99.90
16315;DHT22;8266;52.150;4.768;2023-02-15T15:21:55;14.80;99.90
16315;DHT22;8266;52.150;4.768;2023-02-15T15:24:49;14.70;99.90
16315;DHT22;8266;52.150;4.768;2023-02-15T15:27:50;14.60;99.90
16315;DHT22;8266;52.150;4.768;2023-02-15T15:37:10;14.50;99.90
16315;DHT22;8266;52.150;4.768;2023-02-15T15:40:16;14.50;99.90
16315;DHT22;8266;52.150;4.768;2023-02-15T15:42:50;14.40;99.90
16315;DHT22;8266;52.150;4.768;2023-02-15T15:45:57;14.40;99.90
16315;DHT22;8266;52.150;4.768;2023-02-15T15:48:32;14.30;99.90
16315;DHT22;8266;52.150;4.768;2023-02-15T15:51:03;14.30;99.90
16315;DHT22;8266;52.150;4.768;2023-02-15T15:53:37;14.30;99.90
16315;DHT22;8266;52.150;4.768;2023-02-15T15:56:11;14.20;99.90
16315;DHT22;8266;52.150;4.768;2023-02-15T15:58:42;14.20;99.90
16315;DHT22;8266;52.150;4.768;2023-02-15T16:01:11;14.20;99.90
16315;DHT22;8266;52.150;4.768;2023-02-15T16:03:41;14.20;99.90
16315;DHT22;8266;52.150;4.768;2023-02-15T16:06:26;14.10;99.90
16315;DHT22;8266;52.150;4.768;2023-02-15T16:08:54;14.10;99.90
16315;DHT22;8266;52.150;4.768;2023-02-15T16:11:25;14.10;99.90
16315;DHT22;8266;52.150;4.768;2023-02-15T16:13:53;14.00;99.90
16315;DHT22;8266;52.150;4.768;2023-02-15T16:16:22;14.00;99.90
16315;DHT22;8266;52.150;4.768;2023-02-15T16:18:51;13.90;99.90
16315;DHT22;8266;52.150;4.768;2023-02-15T16:21:21;13.90;99.90
16315;DHT22;8266;52.150;4.768;2023-02-15T16:24:09;13.80;99.90
16315;DHT22;8266;52.150;4.768;2023-02-15T16:27:00;13.80;99.90
16315;DHT22;8266;52.150;4.768;2023-02-15T16:29:32;13.70;99.90
16315;DHT22;8266;52.150;4.768;2023-02-15T16:32:01;13.60;99.90
16315;DHT22;8266;52.150;4.768;2023-02-15T16:34:28;13.60;99.90
16315;DHT22;8266;52.150;4.768;2023-02-15T16:37:17;13.50;99.90
16315;DHT22;8266;52.150;4.768;2023-02-15T16:39:45;13.50;99.90
16315;DHT22;8266;52.150;4.768;2023-02-15T16:42:15;13.40;99.90
16315;DHT22;8266;52.150;4.768;2023-02-15T16:44:43;13.40;99.90
16315;DHT22;8266;52.150;4.768;2023-02-15T16:47:15;13.30;99.90
16315;DHT22;8266;52.150;4.768;2023-02-15T16:49:45;13.30;99.90